createdAt,value
2023-03-06T00:00:33.281Z,99776.94
2023-03-06T00:02:59.868Z,99778.63
2023-03-06T00:05:26.658Z,99773.69
2023-03-06T00:07:53.234Z,99766.94
2023-03-06T00:10:25.400Z,99765.88
2023-03-06T00:12:54.001Z,99764.38
2023-03-06T00:15:20.737Z,99770.13
2023-03-06T00:17:47.356Z,99768.22
2023-03-06T00:20:14.656Z,99764.72
2023-03-06T00:22:41.418Z,99767.22
2023-03-06T00:25:11.875Z,99764.22
2023-03-06T00:27:38.277Z,99759.94
2023-03-06T00:30:05.459Z,99763.00
2023-03-06T00:32:31.904Z,99755.19
2023-03-06T00:34:58.341Z,99752.66
2023-03-06T00:37:25.465Z,99748.13
2023-03-06T00:39:52.065Z,99748.47
2023-03-06T00:42:19.467Z,99751.09
2023-03-06T00:44:46.282Z,99743.13
2023-03-06T00:47:13.329Z,99743.03
2023-03-06T00:49:39.735Z,99738.56
2023-03-06T00:52:06.185Z,99742.59
2023-03-06T00:54:32.582Z,99742.94
2023-03-06T00:56:59.008Z,99736.31
2023-03-06T00:59:25.521Z,99734.69
2023-03-06T01:01:52.056Z,99733.75
2023-03-06T01:04:18.904Z,99731.09
2023-03-06T01:06:45.385Z,99723.88
2023-03-06T01:09:11.835Z,99729.13
2023-03-06T01:11:38.273Z,99723.53
2023-03-06T01:14:05.087Z,99731.31
2023-03-06T01:16:31.713Z,99722.00
2023-03-06T01:18:58.752Z,99712.88
2023-03-06T01:21:26.026Z,99715.22
2023-03-06T01:23:52.433Z,99721.13
2023-03-06T01:26:18.875Z,99709.03
2023-03-06T01:28:45.286Z,99711.81
2023-03-06T01:31:12.118Z,99713.09
2023-03-06T01:33:38.669Z,99714.16
2023-03-06T01:36:07.818Z,99708.31
2023-03-06T01:38:35.760Z,99707.34
2023-03-06T01:41:03.552Z,99704.22
2023-03-06T01:43:42.284Z,99709.28
2023-03-06T01:46:33.246Z,99694.09
2023-03-06T01:49:02.588Z,99692.34
2023-03-06T01:51:33.399Z,99690.31
2023-03-06T01:54:05.112Z,99674.13
2023-03-06T01:56:31.828Z,99673.25
2023-03-06T01:58:58.643Z,99669.84
2023-03-06T02:01:25.692Z,99672.91
2023-03-06T02:03:52.666Z,99683.81
2023-03-06T02:06:21.702Z,99674.72
2023-03-06T02:08:50.148Z,99668.03
2023-03-06T02:11:22.637Z,99675.28
2023-03-06T02:13:50.555Z,99672.63
2023-03-06T02:16:19.940Z,99666.25
2023-03-06T02:18:47.215Z,99673.91
2023-03-06T02:21:22.065Z,99673.25
2023-03-06T02:24:08.732Z,99669.50
2023-03-06T02:26:37.432Z,99665.69
2023-03-06T02:29:04.702Z,99659.19
2023-03-06T02:31:32.578Z,99663.75
2023-03-06T02:34:15.535Z,99660.03
2023-03-06T02:36:48.893Z,99658.56
2023-03-06T02:39:18.257Z,99653.56
2023-03-06T02:41:44.652Z,99649.19
2023-03-06T02:44:11.172Z,99658.16
2023-03-06T02:46:37.633Z,99650.16
2023-03-06T02:49:04.048Z,99649.00
2023-03-06T02:51:30.516Z,99651.13
2023-03-06T02:53:56.956Z,99636.47
2023-03-06T02:56:23.386Z,99644.03
2023-03-06T02:58:49.795Z,99628.94
2023-03-06T03:01:16.270Z,99639.66
2023-03-06T03:03:42.756Z,99628.06
2023-03-06T03:06:09.272Z,99635.38
2023-03-06T03:08:36.067Z,99632.78
2023-03-06T03:11:02.930Z,99620.72
2023-03-06T03:13:29.537Z,99623.88
2023-03-06T03:16:07.874Z,99620.31
2023-03-06T03:18:35.276Z,99619.41
2023-03-06T03:21:02.219Z,99620.25
2023-03-06T03:23:28.690Z,99623.69
2023-03-06T03:25:55.177Z,99617.66
2023-03-06T03:28:21.589Z,99612.72
2023-03-06T03:30:48.120Z,99622.09
2023-03-06T03:33:14.689Z,99615.41
2023-03-06T03:35:41.218Z,99610.59
2023-03-06T03:38:07.763Z,99611.81
2023-03-06T03:40:34.212Z,99607.41
2023-03-06T03:43:00.631Z,99610.06
2023-03-06T03:45:27.176Z,99605.00
2023-03-06T03:47:53.631Z,99591.19
2023-03-06T03:50:20.109Z,99604.00
2023-03-06T03:52:46.718Z,99590.72
2023-03-06T03:55:13.203Z,99580.25
2023-03-06T03:57:39.610Z,99583.50
2023-03-06T04:00:07.981Z,99589.59
2023-03-06T04:02:34.441Z,99580.06
2023-03-06T04:05:01.052Z,99582.06
2023-03-06T04:07:27.466Z,99572.69
2023-03-06T04:09:53.934Z,99580.91
2023-03-06T04:12:20.335Z,99576.88
2023-03-06T04:14:46.722Z,99575.63
2023-03-06T04:17:13.196Z,99573.31
2023-03-06T04:19:39.580Z,99561.72
2023-03-06T04:22:06.024Z,99570.13
2023-03-06T04:24:32.441Z,99574.16
2023-03-06T04:26:58.846Z,99564.88
2023-03-06T04:29:25.315Z,99564.91
2023-03-06T04:31:51.857Z,99560.81
2023-03-06T04:34:18.262Z,99561.75
2023-03-06T04:36:47.296Z,99555.06
2023-03-06T04:39:14.136Z,99556.13
2023-03-06T04:41:41.631Z,99557.28
2023-03-06T04:44:08.712Z,99556.13
2023-03-06T04:46:35.803Z,99547.47
2023-03-06T04:49:02.240Z,99561.13
2023-03-06T04:51:28.717Z,99548.63
2023-03-06T04:53:55.115Z,99545.06
2023-03-06T04:56:21.665Z,99543.84
2023-03-06T04:58:48.077Z,99538.16
2023-03-06T05:01:14.546Z,99546.28
2023-03-06T05:03:40.968Z,99526.69
2023-03-06T05:06:07.560Z,99539.78
2023-03-06T05:08:34.035Z,99545.41
2023-03-06T05:11:02.015Z,99538.84
2023-03-06T05:13:28.949Z,99536.88
2023-03-06T05:15:55.663Z,99544.84
2023-03-06T05:18:22.170Z,99543.69
2023-03-06T05:20:48.656Z,99541.97
2023-03-06T05:23:15.074Z,99543.84
2023-03-06T05:25:42.130Z,99545.38
2023-03-06T05:28:08.547Z,99536.28
2023-03-06T05:30:35.370Z,99540.16
2023-03-06T05:33:01.929Z,99533.00
2023-03-06T05:35:28.478Z,99537.38
2023-03-06T05:37:55.067Z,99528.09
2023-03-06T05:40:21.758Z,99529.78
2023-03-06T05:42:48.244Z,99522.31
2023-03-06T05:45:15.086Z,99525.44
2023-03-06T05:47:41.613Z,99528.41
2023-03-06T05:50:10.333Z,99522.56
2023-03-06T05:52:38.056Z,99520.84
2023-03-06T05:55:04.758Z,99522.31
2023-03-06T05:57:31.258Z,99520.84
2023-03-06T05:59:57.650Z,99520.38
2023-03-06T06:02:24.099Z,99519.03
2023-03-06T06:04:50.548Z,99519.41
2023-03-06T06:07:17.678Z,99514.16
2023-03-06T06:09:45.573Z,99515.28
2023-03-06T06:12:13.158Z,99524.09
2023-03-06T06:14:39.711Z,99525.69
2023-03-06T06:17:06.220Z,99518.25
2023-03-06T06:19:32.733Z,99521.25
2023-03-06T06:21:59.185Z,99530.19
2023-03-06T06:24:26.448Z,99524.44
2023-03-06T06:26:55.006Z,99531.66
2023-03-06T06:29:22.537Z,99514.59
2023-03-06T06:31:49.918Z,99527.53
2023-03-06T06:34:17.217Z,99521.19
2023-03-06T06:36:43.803Z,99519.50
2023-03-06T06:39:13.756Z,99522.16
2023-03-06T06:41:57.014Z,99520.28
2023-03-06T06:44:27.984Z,99524.59
2023-03-06T06:47:22.333Z,99516.78
2023-03-06T06:49:40.777Z,99524.13
2023-03-06T06:52:07.869Z,99516.88
2023-03-06T06:54:34.771Z,99515.44
2023-03-06T06:57:01.382Z,99513.88
2023-03-06T06:59:27.830Z,99513.56
2023-03-06T07:01:54.246Z,99502.91
2023-03-06T07:04:20.992Z,99511.69
2023-03-06T07:06:47.383Z,99508.81
2023-03-06T07:09:14.283Z,99515.09
2023-03-06T07:11:41.626Z,99511.72
2023-03-06T07:14:08.392Z,99509.50
2023-03-06T07:16:34.967Z,99505.09
2023-03-06T07:19:01.473Z,99520.78
2023-03-06T07:21:27.971Z,99521.88
2023-03-06T07:23:57.206Z,99517.88
2023-03-06T07:26:27.338Z,99516.78
2023-03-06T07:28:54.090Z,99516.97
2023-03-06T07:31:23.172Z,99513.97
2023-03-06T07:33:50.959Z,99515.59
2023-03-06T07:36:18.216Z,99515.00
2023-03-06T07:38:44.701Z,99522.41
2023-03-06T07:41:13.623Z,99520.31
2023-03-06T07:43:41.255Z,99523.50
2023-03-06T07:46:08.677Z,99522.13
2023-03-06T07:48:36.578Z,99525.06
2023-03-06T07:51:07.461Z,99525.91
2023-03-06T07:53:34.982Z,99523.78
2023-03-06T07:56:08.499Z,99524.03
2023-03-06T07:58:36.546Z,99520.19
2023-03-06T08:01:29.234Z,99519.47
2023-03-06T08:03:55.774Z,99528.59
2023-03-06T08:06:27.209Z,99524.53
2023-03-06T08:08:55.516Z,99524.75
2023-03-06T08:11:24.041Z,99522.13
2023-03-06T08:14:03.456Z,99527.66
2023-03-06T08:16:31.709Z,99526.78
2023-03-06T08:18:58.246Z,99534.19
2023-03-06T08:21:27.208Z,99522.81
2023-03-06T08:23:54.200Z,99535.91
2023-03-06T08:26:26.735Z,99525.94
2023-03-06T08:28:54.582Z,99530.72
2023-03-06T08:31:31.648Z,99530.56
2023-03-06T08:34:00.688Z,99535.09
2023-03-06T08:36:27.296Z,99539.75
2023-03-06T08:38:53.756Z,99531.09
2023-03-06T08:41:56.300Z,99532.31
2023-03-06T08:44:22.762Z,99531.59
2023-03-06T08:46:49.198Z,99525.72
2023-03-06T08:49:15.636Z,99526.69
2023-03-06T08:51:42.441Z,99525.59
2023-03-06T08:54:12.117Z,99528.38
2023-03-06T08:56:39.609Z,99530.59
2023-03-06T08:59:06.357Z,99523.47
2023-03-06T09:01:36.582Z,99526.75
2023-03-06T09:04:06.910Z,99530.97
2023-03-06T09:06:41.100Z,99533.38
2023-03-06T09:09:08.219Z,99525.56
2023-03-06T09:11:35.387Z,99537.03
2023-03-06T09:14:01.915Z,99537.25
2023-03-06T09:16:28.416Z,99538.34
2023-03-06T09:18:54.957Z,99537.28
2023-03-06T09:21:22.519Z,99535.63
2023-03-06T09:27:08.764Z,99541.91
2023-03-06T09:29:35.197Z,99540.81
2023-03-06T09:32:01.654Z,99542.81
2023-03-06T09:34:28.153Z,99543.41
2023-03-06T09:36:57.325Z,99541.94
2023-03-06T09:39:25.861Z,99543.38
2023-03-06T09:41:53.366Z,99545.81
2023-03-06T09:44:28.671Z,99544.56
2023-03-06T09:47:01.997Z,99549.66
2023-03-06T09:49:31.459Z,99544.28
2023-03-06T09:52:35.057Z,99551.72
2023-03-06T09:55:12.908Z,99546.16
2023-03-06T09:57:52.201Z,99543.09
2023-03-06T10:00:29.151Z,99544.88
2023-03-06T10:03:41.436Z,99551.47
2023-03-06T10:06:32.636Z,99553.94
2023-03-06T10:09:02.002Z,99546.75
2023-03-06T10:11:37.798Z,99551.06
2023-03-06T10:14:23.096Z,99552.25
2023-03-06T10:16:49.802Z,99553.19
2023-03-06T10:19:18.872Z,99548.59
2023-03-06T10:22:02.177Z,99545.41
2023-03-06T10:25:02.743Z,99548.69
2023-03-06T10:27:39.542Z,99544.88
2023-03-06T10:30:42.823Z,99549.81
2023-03-06T10:33:21.672Z,99549.16
2023-03-06T10:35:57.333Z,99536.28
2023-03-06T10:38:29.550Z,99545.59
2023-03-06T10:41:11.238Z,99543.75
2023-03-06T10:43:39.786Z,99549.31
2023-03-06T10:46:08.112Z,99546.78
2023-03-06T10:48:36.729Z,99551.22
2023-03-06T10:51:18.040Z,99549.53
2023-03-06T10:53:57.850Z,99553.59
2023-03-06T10:56:39.359Z,99560.88
2023-03-06T10:59:07.055Z,99560.41
2023-03-06T11:01:33.715Z,99570.63
2023-03-06T11:04:16.636Z,99559.69
2023-03-06T11:06:43.186Z,99570.84
2023-03-06T11:09:18.709Z,99575.34
2023-03-06T11:11:45.234Z,99569.38
2023-03-06T11:14:27.528Z,99572.19
2023-03-06T11:16:54.150Z,99571.25
2023-03-06T11:19:26.529Z,99569.75
2023-03-06T11:22:02.914Z,99574.66
2023-03-06T11:24:38.539Z,99569.50
2023-03-06T11:27:22.266Z,99574.56
2023-03-06T11:29:52.922Z,99568.47
2023-03-06T11:32:26.860Z,99569.25
2023-03-06T11:34:57.611Z,99570.13
2023-03-06T11:37:31.899Z,99569.00
2023-03-06T11:40:11.978Z,99560.63
2023-03-06T11:42:47.923Z,99562.44
2023-03-06T11:45:33.564Z,99563.22
2023-03-06T11:48:15.444Z,99567.47
2023-03-06T11:50:53.152Z,99561.13
2023-03-06T11:53:22.445Z,99568.53
2023-03-06T11:56:19.702Z,99559.41
2023-03-06T11:59:29.852Z,99562.94
2023-03-06T12:02:13.774Z,99552.97
2023-03-06T12:05:14.340Z,99556.66
2023-03-06T12:07:56.357Z,99553.69
2023-03-06T12:10:41.599Z,99559.03
2023-03-06T12:13:17.620Z,99547.88
2023-03-06T12:16:02.242Z,99555.84
2023-03-06T12:18:40.132Z,99557.88
2023-03-06T12:21:18.656Z,99549.16
2023-03-06T12:24:28.505Z,99559.91
2023-03-06T12:27:24.378Z,99562.84
2023-03-06T12:30:22.122Z,99558.97
2023-03-06T12:33:13.452Z,99571.25
2023-03-06T12:35:39.821Z,99573.22
2023-03-06T12:38:24.556Z,99574.31
2023-03-06T12:40:57.017Z,99561.72
2023-03-06T12:43:23.401Z,99562.91
2023-03-06T12:45:58.373Z,99560.34
2023-03-06T12:48:29.409Z,99553.81
2023-03-06T12:50:56.317Z,99545.94
2023-03-06T12:53:53.005Z,99551.03
2023-03-06T12:56:21.790Z,99547.13
2023-03-06T12:58:56.066Z,99542.53
2023-03-06T13:01:55.076Z,99539.53
2023-03-06T13:04:39.974Z,99535.06
2023-03-06T13:07:18.675Z,99536.97
2023-03-06T13:10:13.799Z,99534.34
2023-03-06T13:13:01.731Z,99537.50
2023-03-06T13:15:34.311Z,99531.03
2023-03-06T13:18:01.596Z,99532.25
2023-03-06T13:20:37.937Z,99532.47
2023-03-06T13:23:59.806Z,99535.00
2023-03-06T13:26:26.186Z,99531.72
2023-03-06T13:28:54.466Z,99531.03
2023-03-06T13:31:32.983Z,99526.63
2023-03-06T13:34:33.549Z,99529.66
2023-03-06T13:37:23.014Z,99536.97
2023-03-06T13:40:10.012Z,99537.16
2023-03-06T13:42:56.295Z,99534.78
2023-03-06T13:45:43.299Z,99536.13
2023-03-06T13:48:43.709Z,99540.09
2023-03-06T13:51:15.962Z,99533.91
2023-03-06T13:54:10.158Z,99528.97
2023-03-06T13:57:01.131Z,99541.94
2023-03-06T14:00:10.684Z,99544.28
2023-03-06T14:02:46.392Z,99532.97
2023-03-06T14:05:15.817Z,99524.34
2023-03-06T14:07:45.660Z,99522.34
2023-03-06T14:10:25.431Z,99522.78
2023-03-06T14:12:51.839Z,99515.72
2023-03-06T14:15:20.652Z,99520.97
2023-03-06T14:17:59.358Z,99519.59
2023-03-06T14:20:35.268Z,99519.34
2023-03-06T14:23:26.347Z,99519.06
2023-03-06T14:26:07.827Z,99513.41
2023-03-06T14:28:35.835Z,99515.63
2023-03-06T14:31:04.931Z,99522.28
2023-03-06T14:33:44.684Z,99523.59
2023-03-06T14:36:15.329Z,99514.25
2023-03-06T14:38:55.982Z,99509.41
2023-03-06T14:41:28.634Z,99508.41
2023-03-06T14:44:19.277Z,99501.81
2023-03-06T14:46:51.804Z,99508.47
2023-03-06T14:49:20.403Z,99512.19
2023-03-06T14:51:55.611Z,99506.91
2023-03-06T14:54:36.997Z,99511.28
2023-03-06T14:57:07.992Z,99506.75
2023-03-06T14:59:42.951Z,99499.97
2023-03-06T15:02:15.959Z,99505.13
2023-03-06T15:04:47.447Z,99500.81
2023-03-06T15:07:22.380Z,99495.28
2023-03-06T15:09:51.120Z,99499.16
2023-03-06T15:12:20.718Z,99493.53
2023-03-06T15:15:17.651Z,99483.25
2023-03-06T15:17:47.033Z,99489.88
2023-03-06T15:20:44.349Z,99487.25
2023-03-06T15:23:34.742Z,99484.00
2023-03-06T15:26:25.007Z,99489.56
2023-03-06T15:29:10.761Z,99488.63
2023-03-06T15:31:45.095Z,99485.06
2023-03-06T15:34:11.461Z,99482.00
2023-03-06T15:36:48.941Z,99491.84
2023-03-06T15:39:39.831Z,99482.72
2023-03-06T15:42:27.542Z,99489.56
2023-03-06T15:44:57.657Z,99478.97
2023-03-06T15:47:24.296Z,99489.97
2023-03-06T15:49:53.020Z,99485.41
2023-03-06T15:52:21.017Z,99484.91
2023-03-06T15:54:47.680Z,99487.13
2023-03-06T15:57:32.407Z,99490.16
2023-03-06T16:00:00.710Z,99491.16
2023-03-06T16:02:27.519Z,99491.94
2023-03-06T16:04:54.101Z,99485.88
2023-03-06T16:07:20.829Z,99492.41
2023-03-06T16:09:47.396Z,99486.25
2023-03-06T16:12:17.269Z,99485.19
2023-03-06T16:14:45.040Z,99487.44
2023-03-06T16:17:12.296Z,99485.56
2023-03-06T16:19:38.705Z,99485.34
2023-03-06T16:22:05.200Z,99482.78
2023-03-06T16:24:32.344Z,99474.50
2023-03-06T16:27:01.424Z,99478.28
2023-03-06T16:29:28.565Z,99472.00
2023-03-06T16:31:56.516Z,99470.81
2023-03-06T16:34:23.534Z,99477.25
2023-03-06T16:36:50.585Z,99466.72
2023-03-06T16:39:19.433Z,99466.75
2023-03-06T16:41:46.051Z,99473.06
2023-03-06T16:44:12.942Z,99475.78
2023-03-06T16:46:42.482Z,99472.56
2023-03-06T16:49:21.953Z,99477.47
2023-03-06T16:51:49.036Z,99468.91
2023-03-06T16:54:15.792Z,99466.97
2023-03-06T16:56:42.955Z,99472.63
2023-03-06T16:59:09.743Z,99471.13
2023-03-06T17:01:36.660Z,99469.53
2023-03-06T17:04:03.496Z,99479.66
2023-03-06T17:06:30.336Z,99467.44
2023-03-06T17:08:58.090Z,99463.97
2023-03-06T17:11:25.037Z,99467.09
2023-03-06T17:13:51.467Z,99473.72
2023-03-06T17:16:18.053Z,99468.69
2023-03-06T17:18:45.641Z,99468.47
2023-03-06T17:21:15.542Z,99467.94
2023-03-06T17:23:42.602Z,99460.13
2023-03-06T17:26:19.077Z,99465.91
2023-03-06T17:28:46.565Z,99467.25
2023-03-06T17:31:17.410Z,99468.63
2023-03-06T17:33:44.316Z,99472.66
2023-03-06T17:36:11.374Z,99465.91
2023-03-06T17:38:37.777Z,99476.06
2023-03-06T17:41:06.317Z,99473.78
2023-03-06T17:43:33.505Z,99479.25
2023-03-06T17:46:11.071Z,99477.38
2023-03-06T17:48:37.864Z,99479.50
2023-03-06T17:51:05.363Z,99482.97
2023-03-06T17:53:32.567Z,99480.94
2023-03-06T17:55:59.287Z,99482.00
2023-03-06T17:58:27.070Z,99483.09
2023-03-06T18:00:53.576Z,99475.97
2023-03-06T18:03:20.191Z,99474.28
2023-03-06T18:05:46.737Z,99475.78
2023-03-06T18:08:13.237Z,99476.50
2023-03-06T18:10:41.022Z,99473.00
2023-03-06T18:13:08.540Z,99468.47
2023-03-06T18:15:39.500Z,99466.44
2023-03-06T18:18:06.952Z,99462.81
2023-03-06T18:20:33.643Z,99461.03
2023-03-06T18:23:03.415Z,99461.94
2023-03-06T18:25:32.239Z,99456.69
2023-03-06T18:27:58.726Z,99467.09
2023-03-06T18:30:25.632Z,99457.53
2023-03-06T18:32:53.261Z,99458.53
2023-03-06T18:35:19.843Z,99455.28
2023-03-06T18:37:46.395Z,99457.69
2023-03-06T18:40:13.529Z,99451.34
2023-03-06T18:42:39.909Z,99450.81
2023-03-06T18:45:07.019Z,99451.88
2023-03-06T18:47:33.707Z,99449.09
2023-03-06T18:50:00.248Z,99448.81
2023-03-06T18:52:26.692Z,99451.03
2023-03-06T18:54:53.510Z,99453.06
2023-03-06T18:57:20.039Z,99444.78
2023-03-06T18:59:46.531Z,99442.22
2023-03-06T19:02:13.067Z,99445.63
2023-03-06T19:04:39.758Z,99440.53
2023-03-06T19:07:06.394Z,99439.94
2023-03-06T19:09:32.829Z,99445.69
2023-03-06T19:11:59.472Z,99433.94
2023-03-06T19:14:28.385Z,99442.63
2023-03-06T19:16:55.206Z,99439.22
2023-03-06T19:19:26.141Z,99438.06
2023-03-06T19:21:53.509Z,99433.59
2023-03-06T19:24:20.081Z,99431.75
2023-03-06T19:26:46.581Z,99427.75
2023-03-06T19:29:13.141Z,99416.47
2023-03-06T19:31:39.713Z,99412.94
2023-03-06T19:34:06.274Z,99411.53
2023-03-06T19:36:34.140Z,99406.25
2023-03-06T19:39:03.841Z,99408.47
2023-03-06T19:41:30.458Z,99407.97
2023-03-06T19:43:59.200Z,99404.59
2023-03-06T19:46:26.846Z,99401.22
2023-03-06T19:48:58.101Z,99403.91
2023-03-06T19:51:25.549Z,99404.91
2023-03-06T19:53:52.623Z,99397.28
2023-03-06T19:56:25.999Z,99395.38
2023-03-06T19:58:52.717Z,99384.09
2023-03-06T20:01:21.598Z,99380.25
2023-03-06T20:03:49.313Z,99389.25
2023-03-06T20:06:18.522Z,99376.84
2023-03-06T20:08:46.561Z,99382.25
2023-03-06T20:11:21.798Z,99379.16
2023-03-06T20:13:48.545Z,99370.91
2023-03-06T20:16:16.533Z,99376.22
2023-03-06T20:18:43.711Z,99368.03
2023-03-06T20:21:10.391Z,99360.88
2023-03-06T20:23:36.948Z,99366.75
2023-03-06T20:26:06.168Z,99360.16
2023-03-06T20:28:33.353Z,99360.97
2023-03-06T20:31:06.238Z,99356.41
2023-03-06T20:33:32.710Z,99355.94
2023-03-06T20:35:59.156Z,99347.94
2023-03-06T20:38:25.636Z,99358.56
2023-03-06T20:40:55.686Z,99351.16
2023-03-06T20:43:22.354Z,99339.28
2023-03-06T20:46:04.048Z,99340.03
2023-03-06T20:48:30.584Z,99337.50
2023-03-06T20:51:06.269Z,99337.97
2023-03-06T20:53:34.240Z,99336.72
2023-03-06T20:56:01.276Z,99339.19
2023-03-06T20:58:30.061Z,99332.34
2023-03-06T21:00:56.983Z,99328.03
2023-03-06T21:03:24.123Z,99323.88
2023-03-06T21:05:50.559Z,99310.75
2023-03-06T21:08:17.087Z,99308.06
2023-03-06T21:10:49.302Z,99312.97
2023-03-06T21:13:15.746Z,99313.44
2023-03-06T21:15:43.187Z,99302.81
2023-03-06T21:18:10.544Z,99295.34
2023-03-06T21:20:41.208Z,99302.28
2023-03-06T21:23:09.000Z,99289.41
2023-03-06T21:25:35.813Z,99286.63
2023-03-06T21:28:02.469Z,99286.94
2023-03-06T21:30:29.282Z,99272.84
2023-03-06T21:32:56.038Z,99272.38
2023-03-06T21:35:22.697Z,99267.34
2023-03-06T21:37:49.187Z,99256.72
2023-03-06T21:40:15.707Z,99262.34
2023-03-06T21:42:42.317Z,99262.59
2023-03-06T21:45:09.133Z,99252.25
2023-03-06T21:47:38.924Z,99256.16
2023-03-06T21:50:07.221Z,99247.00
2023-03-06T21:52:33.664Z,99244.38
2023-03-06T21:55:00.367Z,99235.97
2023-03-06T21:57:26.776Z,99232.72
2023-03-06T21:59:53.285Z,99230.38
2023-03-06T22:02:19.703Z,99231.41
2023-03-06T22:04:50.154Z,99221.97
2023-03-06T22:07:17.025Z,99218.53
2023-03-06T22:09:43.435Z,99210.75
2023-03-06T22:12:09.853Z,99204.69
2023-03-06T22:14:36.378Z,99207.06
2023-03-06T22:17:02.873Z,99206.25
2023-03-06T22:19:29.795Z,99198.59
2023-03-06T22:21:56.201Z,99197.50
2023-03-06T22:24:22.670Z,99192.91
2023-03-06T22:26:49.060Z,99190.91
2023-03-06T22:29:15.453Z,99184.34
2023-03-06T22:31:42.293Z,99178.31
2023-03-06T22:34:09.514Z,99172.50
2023-03-06T22:36:35.939Z,99168.66
2023-03-06T22:39:04.172Z,99162.13
2023-03-06T22:41:31.378Z,99160.00
2023-03-06T22:43:59.289Z,99165.28
2023-03-06T22:46:26.480Z,99152.09
2023-03-06T22:48:55.105Z,99153.44
2023-03-06T22:51:21.568Z,99143.09
2023-03-06T22:53:49.686Z,99147.31
2023-03-06T22:56:19.763Z,99141.56
2023-03-06T22:58:47.232Z,99140.47
2023-03-06T23:01:25.532Z,99138.22
2023-03-06T23:03:57.414Z,99126.63
2023-03-06T23:06:28.315Z,99113.16
2023-03-06T23:09:01.093Z,99118.41
2023-03-06T23:11:28.834Z,99111.88
2023-03-06T23:13:55.910Z,99105.69
2023-03-06T23:16:22.384Z,99098.59
2023-03-06T23:18:50.458Z,99095.00
2023-03-06T23:21:18.111Z,99093.59
2023-03-06T23:23:48.742Z,99078.31
2023-03-06T23:26:15.553Z,99074.72
2023-03-06T23:28:42.715Z,99067.50
2023-03-06T23:31:10.952Z,99061.19
2023-03-06T23:33:38.731Z,99060.06
2023-03-06T23:36:06.980Z,99049.38
2023-03-06T23:38:34.027Z,99053.78
2023-03-06T23:41:05.706Z,99047.91
2023-03-06T23:43:32.879Z,99033.00
2023-03-06T23:45:59.659Z,99038.03
2023-03-06T23:48:27.082Z,99033.72
2023-03-06T23:50:53.734Z,99031.16
2023-03-06T23:53:20.160Z,99025.38
2023-03-06T23:55:48.929Z,99023.72
2023-03-06T23:58:16.488Z,99015.44
